Terminal Aerodrome Forecast
Issued by NWS Binghamton, NY

Current Version | Previous Version | Text Only | Print | Product List | Glossary On
Versions: 1 2 3 4 5 6 7 8 9 10 11 12 13 14 15 16 17 18 19
000
FTUS41 KBGM 052329
TAFBGM
TAF
KBGM 052329Z 0600/0624 34008KT P6SM SCT060 BKN250
     FM060100 04005KT P6SM -SHRA OVC070
     FM060800 10005KT 5SM -SHRA BR OVC030
     FM061300 16006KT P6SM OVC050=

USA.gov is the U.S. government's official web portal to all federal, state and local government web resources and services.